sensor_id;sensor_type;location;lat;lon;timestamp;P1;durP1;ratioP1;P2;durP2;ratioP2
36829;SDS011;22767;47.328;9.640;2022-12-29T00:01:34;0.77;;;0.40;;
36829;SDS011;22767;47.328;9.640;2022-12-29T00:04:00;0.43;;;0.40;;
36829;SDS011;22767;47.328;9.640;2022-12-29T00:06:27;0.55;;;0.30;;
36829;SDS011;22767;47.328;9.640;2022-12-29T00:08:53;0.57;;;0.32;;
36829;SDS011;22767;47.328;9.640;2022-12-29T00:11:23;1.67;;;0.47;;
36829;SDS011;22767;47.328;9.640;2022-12-29T00:13:50;0.55;;;0.30;;
36829;SDS011;22767;47.328;9.640;2022-12-29T00:16:35;0.40;;;0.40;;
36829;SDS011;22767;47.328;9.640;2022-12-29T00:19:02;0.50;;;0.40;;
36829;SDS011;22767;47.328;9.640;2022-12-29T00:21:28;0.52;;;0.40;;
36829;SDS011;22767;47.328;9.640;2022-12-29T00:24:20;0.63;;;0.40;;
36829;SDS011;22767;47.328;9.640;2022-12-29T00:26:53;1.15;;;0.32;;
36829;SDS011;22767;47.328;9.640;2022-12-29T00:29:39;0.40;;;0.30;;
36829;SDS011;22767;47.328;9.640;2022-12-29T00:32:24;0.50;;;0.30;;
36829;SDS011;22767;47.328;9.640;2022-12-29T00:35:09;0.88;;;0.50;;
36829;SDS011;22767;47.328;9.640;2022-12-29T00:37:41;0.40;;;0.30;;
36829;SDS011;22767;47.328;9.640;2022-12-29T00:40:27;0.40;;;0.40;;
36829;SDS011;22767;47.328;9.640;2022-12-29T00:43:12;0.40;;;0.30;;
36829;SDS011;22767;47.328;9.640;2022-12-29T00:45:57;0.40;;;0.25;;
36829;SDS011;22767;47.328;9.640;2022-12-29T00:48:23;0.68;;;0.40;;
36829;SDS011;22767;47.328;9.640;2022-12-29T00:51:07;0.50;;;0.40;;
36829;SDS011;22767;47.328;9.640;2022-12-29T00:53:34;0.40;;;0.38;;
36829;SDS011;22767;47.328;9.640;2022-12-29T00:56:00;1.15;;;0.50;;
36829;SDS011;22767;47.328;9.640;2022-12-29T00:58:27;0.68;;;0.50;;
36829;SDS011;22767;47.328;9.640;2022-12-29T01:01:03;0.95;;;0.40;;
36829;SDS011;22767;47.328;9.640;2022-12-29T01:03:30;0.82;;;0.55;;
36829;SDS011;22767;47.328;9.640;2022-12-29T01:05:56;0.47;;;0.45;;
36829;SDS011;22767;47.328;9.640;2022-12-29T01:08:22;0.70;;;0.50;;
36829;SDS011;22767;47.328;9.640;2022-12-29T01:11:01;1.13;;;0.60;;
36829;SDS011;22767;47.328;9.640;2022-12-29T01:13:28;1.05;;;0.60;;
36829;SDS011;22767;47.328;9.640;2022-12-29T01:15:54;0.47;;;0.47;;
36829;SDS011;22767;47.328;9.640;2022-12-29T01:18:21;0.60;;;0.45;;
36829;SDS011;22767;47.328;9.640;2022-12-29T01:20:48;0.60;;;0.50;;
36829;SDS011;22767;47.328;9.640;2022-12-29T01:23:14;0.20;;;0.15;;
36829;SDS011;22767;47.328;9.640;2022-12-29T01:25:40;0.35;;;0.35;;
36829;SDS011;22767;47.328;9.640;2022-12-29T01:28:06;0.52;;;0.30;;
36829;SDS011;22767;47.328;9.640;2022-12-29T01:30:36;1.13;;;0.43;;
36829;SDS011;22767;47.328;9.640;2022-12-29T01:33:02;0.73;;;0.30;;
36829;SDS011;22767;47.328;9.640;2022-12-29T01:35:28;0.90;;;0.50;;
36829;SDS011;22767;47.328;9.640;2022-12-29T01:37:54;2.53;;;0.43;;
36829;SDS011;22767;47.328;9.640;2022-12-29T01:40:21;0.30;;;0.20;;
36829;SDS011;22767;47.328;9.640;2022-12-29T01:42:47;0.40;;;0.30;;
36829;SDS011;22767;47.328;9.640;2022-12-29T01:45:14;0.20;;;0.20;;
36829;SDS011;22767;47.328;9.640;2022-12-29T01:50:38;1.33;;;0.40;;
36829;SDS011;22767;47.328;9.640;2022-12-29T01:53:09;0.52;;;0.35;;
36829;SDS011;22767;47.328;9.640;2022-12-29T01:55:37;0.70;;;0.50;;
36829;SDS011;22767;47.328;9.640;2022-12-29T01:58:05;0.47;;;0.40;;
36829;SDS011;22767;47.328;9.640;2022-12-29T02:00:32;0.75;;;0.40;;
36829;SDS011;22767;47.328;9.640;2022-12-29T02:02:58;0.73;;;0.40;;
36829;SDS011;22767;47.328;9.640;2022-12-29T02:05:46;0.30;;;0.30;;
36829;SDS011;22767;47.328;9.640;2022-12-29T02:08:13;0.93;;;0.40;;
36829;SDS011;22767;47.328;9.640;2022-12-29T02:10:39;0.40;;;0.40;;
36829;SDS011;22767;47.328;9.640;2022-12-29T02:13:06;0.30;;;0.30;;
36829;SDS011;22767;47.328;9.640;2022-12-29T02:15:56;0.73;;;0.30;;
36829;SDS011;22767;47.328;9.640;2022-12-29T02:23:44;0.40;;;0.30;;
36829;SDS011;22767;47.328;9.640;2022-12-29T02:26:21;0.28;;;0.28;;
36829;SDS011;22767;47.328;9.640;2022-12-29T02:31:31;0.38;;;0.30;;
36829;SDS011;22767;47.328;9.640;2022-12-29T02:36:52;0.20;;;0.20;;
36829;SDS011;22767;47.328;9.640;2022-12-29T02:39:26;0.20;;;0.20;;
36829;SDS011;22767;47.328;9.640;2022-12-29T02:47:06;0.30;;;0.30;;
36829;SDS011;22767;47.328;9.640;2022-12-29T02:52:18;0.22;;;0.22;;
36829;SDS011;22767;47.328;9.640;2022-12-29T02:54:47;0.28;;;0.10;;
36829;SDS011;22767;47.328;9.640;2022-12-29T02:59:40;0.95;;;0.30;;
36829;SDS011;22767;47.328;9.640;2022-12-29T03:09:57;0.22;;;0.20;;
36829;SDS011;22767;47.328;9.640;2022-12-29T03:12:31;0.30;;;0.25;;
36829;SDS011;22767;47.328;9.640;2022-12-29T03:15:23;0.40;;;0.30;;
36829;SDS011;22767;47.328;9.640;2022-12-29T03:18:13;0.20;;;0.20;;
36829;SDS011;22767;47.328;9.640;2022-12-29T03:20:43;0.60;;;0.30;;
36829;SDS011;22767;47.328;9.640;2022-12-29T03:23:10;0.20;;;0.20;;
36829;SDS011;22767;47.328;9.640;2022-12-29T03:25:38;0.93;;;0.30;;
36829;SDS011;22767;47.328;9.640;2022-12-29T03:28:06;0.52;;;0.28;;
36829;SDS011;22767;47.328;9.640;2022-12-29T03:30:34;0.40;;;0.20;;
36829;SDS011;22767;47.328;9.640;2022-12-29T03:33:02;0.50;;;0.25;;
36829;SDS011;22767;47.328;9.640;2022-12-29T03:35:30;0.47;;;0.30;;
36829;SDS011;22767;47.328;9.640;2022-12-29T03:40:27;0.50;;;0.40;;
36829;SDS011;22767;47.328;9.640;2022-12-29T03:42:54;0.57;;;0.40;;
36829;SDS011;22767;47.328;9.640;2022-12-29T03:45:21;0.20;;;0.20;;
36829;SDS011;22767;47.328;9.640;2022-12-29T03:47:47;0.38;;;0.30;;
36829;SDS011;22767;47.328;9.640;2022-12-29T03:50:13;0.55;;;0.35;;
36829;SDS011;22767;47.328;9.640;2022-12-29T03:52:39;1.02;;;0.20;;
36829;SDS011;22767;47.328;9.640;2022-12-29T03:55:05;0.30;;;0.30;;
36829;SDS011;22767;47.328;9.640;2022-12-29T03:57:31;0.30;;;0.30;;
36829;SDS011;22767;47.328;9.640;2022-12-29T03:59:58;0.30;;;0.30;;
36829;SDS011;22767;47.328;9.640;2022-12-29T04:02:24;0.20;;;0.20;;
36829;SDS011;22767;47.328;9.640;2022-12-29T04:04:50;0.70;;;0.30;;
36829;SDS011;22767;47.328;9.640;2022-12-29T04:07:16;0.30;;;0.28;;
36829;SDS011;22767;47.328;9.640;2022-12-29T04:09:42;0.28;;;0.22;;
36829;SDS011;22767;47.328;9.640;2022-12-29T04:12:08;0.30;;;0.30;;
36829;SDS011;22767;47.328;9.640;2022-12-29T04:14:34;0.25;;;0.25;;
36829;SDS011;22767;47.328;9.640;2022-12-29T04:17:01;0.50;;;0.30;;
36829;SDS011;22767;47.328;9.640;2022-12-29T04:19:27;0.40;;;0.30;;
36829;SDS011;22767;47.328;9.640;2022-12-29T04:21:53;0.52;;;0.40;;
36829;SDS011;22767;47.328;9.640;2022-12-29T04:24:19;0.20;;;0.20;;
36829;SDS011;22767;47.328;9.640;2022-12-29T04:26:45;0.35;;;0.30;;
36829;SDS011;22767;47.328;9.640;2022-12-29T04:29:11;0.68;;;0.30;;
36829;SDS011;22767;47.328;9.640;2022-12-29T04:31:37;1.98;;;0.30;;
36829;SDS011;22767;47.328;9.640;2022-12-29T04:34:03;0.30;;;0.30;;
36829;SDS011;22767;47.328;9.640;2022-12-29T04:36:30;1.85;;;0.22;;
36829;SDS011;22767;47.328;9.640;2022-12-29T04:38:56;0.95;;;0.43;;
36829;SDS011;22767;47.328;9.640;2022-12-29T04:41:22;0.30;;;0.30;;
36829;SDS011;22767;47.328;9.640;2022-12-29T04:43:48;0.60;;;0.25;;
36829;SDS011;22767;47.328;9.640;2022-12-29T04:46:14;1.23;;;0.15;;
36829;SDS011;22767;47.328;9.640;2022-12-29T04:48:41;0.73;;;0.30;;
36829;SDS011;22767;47.328;9.640;2022-12-29T04:51:07;0.55;;;0.40;;
36829;SDS011;22767;47.328;9.640;2022-12-29T04:53:33;0.75;;;0.40;;
36829;SDS011;22767;47.328;9.640;2022-12-29T04:55:59;0.32;;;0.30;;
36829;SDS011;22767;47.328;9.640;2022-12-29T04:58:26;0.85;;;0.38;;
36829;SDS011;22767;47.328;9.640;2022-12-29T05:00:52;0.20;;;0.20;;
36829;SDS011;22767;47.328;9.640;2022-12-29T05:03:18;1.48;;;0.50;;
36829;SDS011;22767;47.328;9.640;2022-12-29T05:05:44;0.52;;;0.40;;
36829;SDS011;22767;47.328;9.640;2022-12-29T05:08:10;0.25;;;0.25;;
36829;SDS011;22767;47.328;9.640;2022-12-29T05:10:36;0.65;;;0.35;;
36829;SDS011;22767;47.328;9.640;2022-12-29T05:13:03;0.50;;;0.35;;
36829;SDS011;22767;47.328;9.640;2022-12-29T05:15:29;0.30;;;0.30;;
36829;SDS011;22767;47.328;9.640;2022-12-29T05:17:55;0.77;;;0.30;;
36829;SDS011;22767;47.328;9.640;2022-12-29T05:20:21;0.65;;;0.32;;
36829;SDS011;22767;47.328;9.640;2022-12-29T05:22:48;1.23;;;0.38;;
36829;SDS011;22767;47.328;9.640;2022-12-29T05:25:14;0.43;;;0.30;;
36829;SDS011;22767;47.328;9.640;2022-12-29T05:27:40;0.52;;;0.20;;
36829;SDS011;22767;47.328;9.640;2022-12-29T05:30:06;0.60;;;0.30;;
36829;SDS011;22767;47.328;9.640;2022-12-29T05:32:33;0.55;;;0.32;;
36829;SDS011;22767;47.328;9.640;2022-12-29T05:35:00;0.28;;;0.28;;
36829;SDS011;22767;47.328;9.640;2022-12-29T05:37:26;0.60;;;0.40;;
36829;SDS011;22767;47.328;9.640;2022-12-29T05:39:53;0.93;;;0.60;;
36829;SDS011;22767;47.328;9.640;2022-12-29T05:42:19;0.50;;;0.40;;
36829;SDS011;22767;47.328;9.640;2022-12-29T05:44:45;0.30;;;0.30;;
36829;SDS011;22767;47.328;9.640;2022-12-29T05:47:11;0.40;;;0.40;;
36829;SDS011;22767;47.328;9.640;2022-12-29T05:49:37;0.63;;;0.40;;
36829;SDS011;22767;47.328;9.640;2022-12-29T05:52:04;1.45;;;0.45;;
36829;SDS011;22767;47.328;9.640;2022-12-29T05:54:30;0.70;;;0.50;;
36829;SDS011;22767;47.328;9.640;2022-12-29T05:56:56;0.40;;;0.40;;
36829;SDS011;22767;47.328;9.640;2022-12-29T05:59:22;0.47;;;0.38;;
36829;SDS011;22767;47.328;9.640;2022-12-29T06:01:48;0.30;;;0.30;;
36829;SDS011;22767;47.328;9.640;2022-12-29T06:04:15;0.85;;;0.35;;
36829;SDS011;22767;47.328;9.640;2022-12-29T06:06:41;0.57;;;0.50;;
36829;SDS011;22767;47.328;9.640;2022-12-29T06:09:09;0.60;;;0.40;;
36829;SDS011;22767;47.328;9.640;2022-12-29T06:11:35;1.00;;;0.50;;
36829;SDS011;22767;47.328;9.640;2022-12-29T06:14:02;0.30;;;0.30;;
36829;SDS011;22767;47.328;9.640;2022-12-29T06:16:29;0.77;;;0.40;;
36829;SDS011;22767;47.328;9.640;2022-12-29T06:18:55;0.55;;;0.32;;
36829;SDS011;22767;47.328;9.640;2022-12-29T06:21:21;0.73;;;0.50;;
36829;SDS011;22767;47.328;9.640;2022-12-29T06:23:47;1.23;;;0.50;;
36829;SDS011;22767;47.328;9.640;2022-12-29T06:26:13;0.30;;;0.30;;
36829;SDS011;22767;47.328;9.640;2022-12-29T06:28:40;0.80;;;0.30;;
36829;SDS011;22767;47.328;9.640;2022-12-29T06:31:08;0.95;;;0.35;;
36829;SDS011;22767;47.328;9.640;2022-12-29T06:33:35;0.30;;;0.30;;
36829;SDS011;22767;47.328;9.640;2022-12-29T06:36:01;1.02;;;0.45;;
36829;SDS011;22767;47.328;9.640;2022-12-29T06:38:27;0.40;;;0.40;;
36829;SDS011;22767;47.328;9.640;2022-12-29T06:40:53;0.30;;;0.30;;
36829;SDS011;22767;47.328;9.640;2022-12-29T06:43:19;0.63;;;0.45;;
36829;SDS011;22767;47.328;9.640;2022-12-29T06:45:45;0.50;;;0.30;;
36829;SDS011;22767;47.328;9.640;2022-12-29T06:48:12;0.88;;;0.40;;
36829;SDS011;22767;47.328;9.640;2022-12-29T06:50:38;0.35;;;0.30;;
36829;SDS011;22767;47.328;9.640;2022-12-29T06:53:04;0.43;;;0.30;;
36829;SDS011;22767;47.328;9.640;2022-12-29T06:55:30;1.17;;;0.45;;
36829;SDS011;22767;47.328;9.640;2022-12-29T06:57:57;0.50;;;0.50;;
36829;SDS011;22767;47.328;9.640;2022-12-29T07:00:23;1.13;;;0.40;;
36829;SDS011;22767;47.328;9.640;2022-12-29T07:02:50;1.05;;;0.50;;
36829;SDS011;22767;47.328;9.640;2022-12-29T07:05:16;0.43;;;0.40;;
36829;SDS011;22767;47.328;9.640;2022-12-29T07:07:42;1.50;;;0.68;;
36829;SDS011;22767;47.328;9.640;2022-12-29T07:10:08;0.95;;;0.52;;
36829;SDS011;22767;47.328;9.640;2022-12-29T07:12:35;0.68;;;0.55;;
36829;SDS011;22767;47.328;9.640;2022-12-29T07:15:01;1.13;;;0.50;;
36829;SDS011;22767;47.328;9.640;2022-12-29T07:17:27;1.38;;;0.55;;
36829;SDS011;22767;47.328;9.640;2022-12-29T07:19:54;0.70;;;0.50;;
36829;SDS011;22767;47.328;9.640;2022-12-29T07:22:20;1.75;;;0.70;;
36829;SDS011;22767;47.328;9.640;2022-12-29T07:24:46;0.60;;;0.50;;
36829;SDS011;22767;47.328;9.640;2022-12-29T07:27:12;1.45;;;1.05;;
36829;SDS011;22767;47.328;9.640;2022-12-29T07:29:39;1.52;;;0.70;;
36829;SDS011;22767;47.328;9.640;2022-12-29T07:32:05;2.45;;;0.98;;
36829;SDS011;22767;47.328;9.640;2022-12-29T07:34:31;0.70;;;0.68;;
36829;SDS011;22767;47.328;9.640;2022-12-29T07:36:57;0.50;;;0.50;;
36829;SDS011;22767;47.328;9.640;2022-12-29T07:39:23;0.70;;;0.60;;
36829;SDS011;22767;47.328;9.640;2022-12-29T07:41:50;0.90;;;0.82;;
36829;SDS011;22767;47.328;9.640;2022-12-29T07:44:16;0.60;;;0.47;;
36829;SDS011;22767;47.328;9.640;2022-12-29T07:46:42;0.50;;;0.50;;
36829;SDS011;22767;47.328;9.640;2022-12-29T07:49:08;0.70;;;0.50;;
36829;SDS011;22767;47.328;9.640;2022-12-29T07:51:34;1.95;;;0.50;;
36829;SDS011;22767;47.328;9.640;2022-12-29T07:54:00;0.70;;;0.47;;
36829;SDS011;22767;47.328;9.640;2022-12-29T07:56:27;1.73;;;0.60;;
36829;SDS011;22767;47.328;9.640;2022-12-29T07:58:53;1.23;;;0.40;;
36829;SDS011;22767;47.328;9.640;2022-12-29T08:01:19;0.68;;;0.60;;
36829;SDS011;22767;47.328;9.640;2022-12-29T08:03:46;0.57;;;0.52;;
36829;SDS011;22767;47.328;9.640;2022-12-29T08:06:12;0.80;;;0.40;;
36829;SDS011;22767;47.328;9.640;2022-12-29T08:08:38;1.10;;;0.55;;
36829;SDS011;22767;47.328;9.640;2022-12-29T08:11:05;1.40;;;0.65;;
36829;SDS011;22767;47.328;9.640;2022-12-29T08:13:33;0.75;;;0.50;;
36829;SDS011;22767;47.328;9.640;2022-12-29T08:15:59;0.60;;;0.52;;
36829;SDS011;22767;47.328;9.640;2022-12-29T08:18:25;1.10;;;0.40;;
36829;SDS011;22767;47.328;9.640;2022-12-29T08:20:51;1.95;;;0.55;;
36829;SDS011;22767;47.328;9.640;2022-12-29T08:23:18;0.88;;;0.60;;
36829;SDS011;22767;47.328;9.640;2022-12-29T08:25:44;0.88;;;0.63;;
36829;SDS011;22767;47.328;9.640;2022-12-29T08:28:10;1.20;;;0.60;;
36829;SDS011;22767;47.328;9.640;2022-12-29T08:30:36;1.05;;;0.82;;
36829;SDS011;22767;47.328;9.640;2022-12-29T08:33:02;2.13;;;0.75;;
36829;SDS011;22767;47.328;9.640;2022-12-29T08:35:29;2.03;;;0.75;;
36829;SDS011;22767;47.328;9.640;2022-12-29T08:37:55;1.75;;;0.60;;
36829;SDS011;22767;47.328;9.640;2022-12-29T08:40:21;1.80;;;0.65;;
36829;SDS011;22767;47.328;9.640;2022-12-29T08:42:47;1.02;;;0.55;;
36829;SDS011;22767;47.328;9.640;2022-12-29T08:45:13;0.60;;;0.40;;
36829;SDS011;22767;47.328;9.640;2022-12-29T08:47:39;1.02;;;0.60;;
36829;SDS011;22767;47.328;9.640;2022-12-29T08:50:06;1.92;;;0.70;;
36829;SDS011;22767;47.328;9.640;2022-12-29T08:52:32;1.55;;;0.65;;
36829;SDS011;22767;47.328;9.640;2022-12-29T08:54:58;0.80;;;0.80;;
36829;SDS011;22767;47.328;9.640;2022-12-29T08:57:24;1.02;;;0.70;;
36829;SDS011;22767;47.328;9.640;2022-12-29T08:59:51;2.25;;;0.88;;
36829;SDS011;22767;47.328;9.640;2022-12-29T09:02:17;1.52;;;0.80;;
36829;SDS011;22767;47.328;9.640;2022-12-29T09:04:43;1.80;;;0.80;;
36829;SDS011;22767;47.328;9.640;2022-12-29T09:07:09;2.40;;;0.52;;
36829;SDS011;22767;47.328;9.640;2022-12-29T09:09:35;1.15;;;0.70;;
36829;SDS011;22767;47.328;9.640;2022-12-29T09:12:01;1.02;;;0.60;;
36829;SDS011;22767;47.328;9.640;2022-12-29T09:14:28;3.08;;;0.70;;
36829;SDS011;22767;47.328;9.640;2022-12-29T09:16:54;0.80;;;0.57;;
36829;SDS011;22767;47.328;9.640;2022-12-29T09:19:39;0.90;;;0.90;;
36829;SDS011;22767;47.328;9.640;2022-12-29T09:22:05;1.55;;;0.63;;
36829;SDS011;22767;47.328;9.640;2022-12-29T09:24:31;1.05;;;0.60;;
36829;SDS011;22767;47.328;9.640;2022-12-29T09:26:57;0.70;;;0.40;;
36829;SDS011;22767;47.328;9.640;2022-12-29T09:29:23;1.63;;;0.60;;
36829;SDS011;22767;47.328;9.640;2022-12-29T09:31:49;0.70;;;0.60;;
36829;SDS011;22767;47.328;9.640;2022-12-29T09:34:16;0.95;;;0.60;;
36829;SDS011;22767;47.328;9.640;2022-12-29T09:36:42;0.68;;;0.50;;
36829;SDS011;22767;47.328;9.640;2022-12-29T09:39:08;0.93;;;0.50;;
36829;SDS011;22767;47.328;9.640;2022-12-29T09:41:52;2.58;;;0.50;;
36829;SDS011;22767;47.328;9.640;2022-12-29T09:44:23;1.00;;;0.90;;
36829;SDS011;22767;47.328;9.640;2022-12-29T09:46:52;0.75;;;0.50;;
36829;SDS011;22767;47.328;9.640;2022-12-29T09:52:05;1.33;;;0.63;;
36829;SDS011;22767;47.328;9.640;2022-12-29T09:57:04;1.17;;;0.60;;
36829;SDS011;22767;47.328;9.640;2022-12-29T09:59:39;0.80;;;0.43;;
36829;SDS011;22767;47.328;9.640;2022-12-29T10:07:18;1.83;;;0.50;;
36829;SDS011;22767;47.328;9.640;2022-12-29T10:09:47;1.63;;;0.90;;
36829;SDS011;22767;47.328;9.640;2022-12-29T10:12:43;1.27;;;0.80;;
36829;SDS011;22767;47.328;9.640;2022-12-29T10:15:28;2.10;;;0.82;;
36829;SDS011;22767;47.328;9.640;2022-12-29T10:18:03;1.58;;;1.02;;
36829;SDS011;22767;47.328;9.640;2022-12-29T10:20:33;1.73;;;0.90;;
36829;SDS011;22767;47.328;9.640;2022-12-29T10:25:29;1.90;;;1.00;;
36829;SDS011;22767;47.328;9.640;2022-12-29T10:27:57;1.25;;;0.95;;
36829;SDS011;22767;47.328;9.640;2022-12-29T10:30:24;1.67;;;0.93;;
36829;SDS011;22767;47.328;9.640;2022-12-29T10:32:55;1.98;;;1.10;;
36829;SDS011;22767;47.328;9.640;2022-12-29T10:35:24;1.90;;;0.90;;
36829;SDS011;22767;47.328;9.640;2022-12-29T10:38:05;2.30;;;0.95;;
36829;SDS011;22767;47.328;9.640;2022-12-29T10:43:07;2.08;;;0.98;;
36829;SDS011;22767;47.328;9.640;2022-12-29T10:45:38;1.48;;;0.90;;
36829;SDS011;22767;47.328;9.640;2022-12-29T10:48:08;2.20;;;1.20;;
36829;SDS011;22767;47.328;9.640;2022-12-29T10:50:34;1.60;;;0.98;;
36829;SDS011;22767;47.328;9.640;2022-12-29T10:53:02;3.53;;;1.10;;
36829;SDS011;22767;47.328;9.640;2022-12-29T10:55:30;2.15;;;1.10;;
36829;SDS011;22767;47.328;9.640;2022-12-29T10:57:59;1.42;;;1.05;;
36829;SDS011;22767;47.328;9.640;2022-12-29T11:00:29;2.13;;;1.20;;
36829;SDS011;22767;47.328;9.640;2022-12-29T11:08:10;1.65;;;1.00;;
36829;SDS011;22767;47.328;9.640;2022-12-29T11:10:39;2.60;;;1.48;;
36829;SDS011;22767;47.328;9.640;2022-12-29T11:18:17;2.90;;;1.50;;
36829;SDS011;22767;47.328;9.640;2022-12-29T11:20:44;2.00;;;1.25;;
36829;SDS011;22767;47.328;9.640;2022-12-29T11:28:52;2.60;;;1.30;;
36829;SDS011;22767;47.328;9.640;2022-12-29T11:31:29;3.92;;;1.20;;
36829;SDS011;22767;47.328;9.640;2022-12-29T11:33:55;2.13;;;1.05;;
36829;SDS011;22767;47.328;9.640;2022-12-29T11:36:22;1.85;;;1.02;;
36829;SDS011;22767;47.328;9.640;2022-12-29T11:38:49;1.67;;;1.02;;
36829;SDS011;22767;47.328;9.640;2022-12-29T11:41:24;3.90;;;1.20;;
36829;SDS011;22767;47.328;9.640;2022-12-29T11:43:50;1.77;;;0.98;;
36829;SDS011;22767;47.328;9.640;2022-12-29T11:46:19;1.17;;;1.00;;
36829;SDS011;22767;47.328;9.640;2022-12-29T11:48:46;2.17;;;1.33;;
36829;SDS011;22767;47.328;9.640;2022-12-29T11:51:13;2.92;;;1.10;;
36829;SDS011;22767;47.328;9.640;2022-12-29T11:53:47;2.15;;;1.08;;
36829;SDS011;22767;47.328;9.640;2022-12-29T11:56:15;2.33;;;1.27;;
36829;SDS011;22767;47.328;9.640;2022-12-29T11:58:41;3.92;;;1.30;;
36829;SDS011;22767;47.328;9.640;2022-12-29T12:01:18;1.65;;;0.85;;
36829;SDS011;22767;47.328;9.640;2022-12-29T12:03:52;2.40;;;1.20;;
36829;SDS011;22767;47.328;9.640;2022-12-29T12:06:22;2.17;;;0.93;;
36829;SDS011;22767;47.328;9.640;2022-12-29T12:08:53;2.42;;;1.17;;
36829;SDS011;22767;47.328;9.640;2022-12-29T12:11:21;2.15;;;1.10;;
36829;SDS011;22767;47.328;9.640;2022-12-29T12:14:01;1.70;;;0.95;;
36829;SDS011;22767;47.328;9.640;2022-12-29T12:16:31;1.27;;;1.15;;
36829;SDS011;22767;47.328;9.640;2022-12-29T12:19:01;2.30;;;0.90;;
36829;SDS011;22767;47.328;9.640;2022-12-29T12:21:36;1.00;;;0.90;;
36829;SDS011;22767;47.328;9.640;2022-12-29T12:26:47;1.23;;;0.73;;
36829;SDS011;22767;47.328;9.640;2022-12-29T12:29:22;1.55;;;1.00;;
36829;SDS011;22767;47.328;9.640;2022-12-29T12:32:11;1.88;;;0.90;;
36829;SDS011;22767;47.328;9.640;2022-12-29T12:34:37;2.10;;;0.95;;
36829;SDS011;22767;47.328;9.640;2022-12-29T12:44:33;2.75;;;0.95;;
36829;SDS011;22767;47.328;9.640;2022-12-29T12:57:40;2.92;;;1.13;;
36829;SDS011;22767;47.328;9.640;2022-12-29T13:00:11;1.75;;;0.95;;
36829;SDS011;22767;47.328;9.640;2022-12-29T13:05:17;2.25;;;1.00;;
36829;SDS011;22767;47.328;9.640;2022-12-29T13:10:28;2.35;;;0.90;;
36829;SDS011;22767;47.328;9.640;2022-12-29T13:18:01;1.30;;;0.90;;
36829;SDS011;22767;47.328;9.640;2022-12-29T13:20:36;1.55;;;0.80;;
36829;SDS011;22767;47.328;9.640;2022-12-29T13:38:40;1.10;;;0.80;;
36829;SDS011;22767;47.328;9.640;2022-12-29T13:41:08;1.90;;;0.90;;
36829;SDS011;22767;47.328;9.640;2022-12-29T13:43:37;1.85;;;0.60;;
36829;SDS011;22767;47.328;9.640;2022-12-29T13:46:09;1.27;;;0.90;;
36829;SDS011;22767;47.328;9.640;2022-12-29T13:48:37;1.02;;;0.90;;
36829;SDS011;22767;47.328;9.640;2022-12-29T13:51:05;1.42;;;1.13;;
36829;SDS011;22767;47.328;9.640;2022-12-29T13:53:41;1.85;;;1.00;;
36829;SDS011;22767;47.328;9.640;2022-12-29T13:56:16;2.13;;;0.80;;
36829;SDS011;22767;47.328;9.640;2022-12-29T14:03:54;3.33;;;1.20;;
36829;SDS011;22767;47.328;9.640;2022-12-29T14:06:22;1.35;;;0.98;;
36829;SDS011;22767;47.328;9.640;2022-12-29T14:08:49;2.45;;;1.00;;
36829;SDS011;22767;47.328;9.640;2022-12-29T14:11:17;1.83;;;1.00;;
36829;SDS011;22767;47.328;9.640;2022-12-29T14:13:44;1.98;;;1.15;;
36829;SDS011;22767;47.328;9.640;2022-12-29T14:16:28;2.80;;;1.20;;
36829;SDS011;22767;47.328;9.640;2022-12-29T14:18:55;1.45;;;1.13;;
36829;SDS011;22767;47.328;9.640;2022-12-29T14:21:24;1.20;;;0.70;;
36829;SDS011;22767;47.328;9.640;2022-12-29T14:23:57;0.95;;;0.57;;
36829;SDS011;22767;47.328;9.640;2022-12-29T14:28:56;1.75;;;0.80;;
36829;SDS011;22767;47.328;9.640;2022-12-29T14:36:33;1.67;;;0.73;;
36829;SDS011;22767;47.328;9.640;2022-12-29T14:38:59;2.10;;;0.70;;
36829;SDS011;22767;47.328;9.640;2022-12-29T14:41:27;2.17;;;0.70;;
36829;SDS011;22767;47.328;9.640;2022-12-29T14:44:17;1.10;;;0.68;;
36829;SDS011;22767;47.328;9.640;2022-12-29T14:46:44;3.05;;;0.70;;
36829;SDS011;22767;47.328;9.640;2022-12-29T14:49:21;1.38;;;0.80;;
36829;SDS011;22767;47.328;9.640;2022-12-29T14:51:49;1.08;;;0.80;;
36829;SDS011;22767;47.328;9.640;2022-12-29T14:57:02;1.48;;;0.77;;
36829;SDS011;22767;47.328;9.640;2022-12-29T14:59:29;2.55;;;0.70;;
36829;SDS011;22767;47.328;9.640;2022-12-29T15:01:56;1.10;;;0.73;;
36829;SDS011;22767;47.328;9.640;2022-12-29T15:04:25;0.70;;;0.70;;
36829;SDS011;22767;47.328;9.640;2022-12-29T15:06:52;1.10;;;0.93;;
36829;SDS011;22767;47.328;9.640;2022-12-29T15:09:28;1.13;;;0.70;;
36829;SDS011;22767;47.328;9.640;2022-12-29T15:12:06;1.00;;;0.65;;
36829;SDS011;22767;47.328;9.640;2022-12-29T15:14:38;1.55;;;1.02;;
36829;SDS011;22767;47.328;9.640;2022-12-29T15:17:09;1.08;;;0.68;;
36829;SDS011;22767;47.328;9.640;2022-12-29T15:19:36;1.38;;;0.95;;
36829;SDS011;22767;47.328;9.640;2022-12-29T15:22:03;0.90;;;0.75;;
36829;SDS011;22767;47.328;9.640;2022-12-29T15:24:29;5.72;;;1.60;;
36829;SDS011;22767;47.328;9.640;2022-12-29T15:26:55;4.10;;;1.10;;
36829;SDS011;22767;47.328;9.640;2022-12-29T15:29:29;1.52;;;0.75;;
36829;SDS011;22767;47.328;9.640;2022-12-29T15:31:56;1.63;;;1.00;;
36829;SDS011;22767;47.328;9.640;2022-12-29T15:34:23;1.27;;;0.80;;
36829;SDS011;22767;47.328;9.640;2022-12-29T15:36:49;1.50;;;0.70;;
36829;SDS011;22767;47.328;9.640;2022-12-29T15:39:19;2.63;;;0.90;;
36829;SDS011;22767;47.328;9.640;2022-12-29T15:44:38;1.20;;;0.70;;
36829;SDS011;22767;47.328;9.640;2022-12-29T15:47:05;1.98;;;0.85;;
36829;SDS011;22767;47.328;9.640;2022-12-29T15:49:32;2.15;;;0.82;;
36829;SDS011;22767;47.328;9.640;2022-12-29T15:51:59;1.67;;;0.80;;
36829;SDS011;22767;47.328;9.640;2022-12-29T15:54:25;0.90;;;0.85;;
36829;SDS011;22767;47.328;9.640;2022-12-29T15:56:53;2.47;;;0.82;;
36829;SDS011;22767;47.328;9.640;2022-12-29T16:01:48;2.20;;;0.50;;
36829;SDS011;22767;47.328;9.640;2022-12-29T16:04:15;2.80;;;0.70;;
36829;SDS011;22767;47.328;9.640;2022-12-29T16:06:45;1.23;;;0.77;;
36829;SDS011;22767;47.328;9.640;2022-12-29T16:09:28;1.17;;;0.85;;
36829;SDS011;22767;47.328;9.640;2022-12-29T16:11:55;2.63;;;0.80;;
36829;SDS011;22767;47.328;9.640;2022-12-29T16:14:24;1.85;;;0.80;;
36829;SDS011;22767;47.328;9.640;2022-12-29T16:16:53;1.98;;;0.70;;
36829;SDS011;22767;47.328;9.640;2022-12-29T16:19:28;1.02;;;0.70;;
36829;SDS011;22767;47.328;9.640;2022-12-29T16:21:57;1.58;;;0.88;;
36829;SDS011;22767;47.328;9.640;2022-12-29T16:24:25;1.40;;;0.90;;
36829;SDS011;22767;47.328;9.640;2022-12-29T16:26:59;1.70;;;0.90;;
36829;SDS011;22767;47.328;9.640;2022-12-29T16:29:30;1.25;;;0.90;;
36829;SDS011;22767;47.328;9.640;2022-12-29T16:31:58;1.25;;;0.80;;
36829;SDS011;22767;47.328;9.640;2022-12-29T16:34:31;0.90;;;0.80;;
36829;SDS011;22767;47.328;9.640;2022-12-29T16:37:02;1.70;;;1.10;;
36829;SDS011;22767;47.328;9.640;2022-12-29T16:39:38;0.75;;;0.75;;
36829;SDS011;22767;47.328;9.640;2022-12-29T16:44:50;1.40;;;0.80;;
36829;SDS011;22767;47.328;9.640;2022-12-29T16:47:18;1.58;;;0.80;;
36829;SDS011;22767;47.328;9.640;2022-12-29T16:49:48;1.00;;;0.88;;
36829;SDS011;22767;47.328;9.640;2022-12-29T16:52:21;0.93;;;0.65;;
36829;SDS011;22767;47.328;9.640;2022-12-29T16:54:52;2.03;;;1.30;;
36829;SDS011;22767;47.328;9.640;2022-12-29T16:57:23;2.10;;;0.90;;
36829;SDS011;22767;47.328;9.640;2022-12-29T16:59:50;2.35;;;0.93;;
36829;SDS011;22767;47.328;9.640;2022-12-29T17:02:19;1.55;;;1.00;;
36829;SDS011;22767;47.328;9.640;2022-12-29T17:04:46;1.10;;;0.80;;
36829;SDS011;22767;47.328;9.640;2022-12-29T17:07:18;1.60;;;0.90;;
36829;SDS011;22767;47.328;9.640;2022-12-29T17:09:48;1.10;;;0.95;;
36829;SDS011;22767;47.328;9.640;2022-12-29T17:12:17;0.95;;;0.70;;
36829;SDS011;22767;47.328;9.640;2022-12-29T17:20:17;3.38;;;2.17;;